Time;durP1;ratioP1;P1;durP2;ratioP2;P2;SDS_P1;SDS_P2;PMS_P1;PMS_P2;Temp;Humidity;BMP_temperature;BMP_pressure;BME280_temperature;BME280_humidity;BME280_pressure;Samples;Min_cycle;Max_cycle;Signal;HPM_P1;HPM_P2
2022/05/04 04:02:32;;;;;;;17.33;14.52;;;9.90;99.90;;;;;;5041256;23;20252;-73
2022/05/04 04:04:58;;;;;;;17.30;14.30;;;10.00;99.90;;;;;;4995682;28;20480;-72
2022/05/04 04:07:23;;;;;;;16.55;14.65;;;10.00;99.90;;;;;;4996542;28;20492;-72
2022/05/04 04:09:49;;;;;;;16.63;13.88;;;10.00;99.90;;;;;;4996116;28;20117;-72
2022/05/04 04:12:14;;;;;;;16.17;14.45;;;10.10;99.90;;;;;;4995926;28;20065;-72
2022/05/04 04:14:40;;;;;;;15.60;13.82;;;10.10;99.90;;;;;;4995813;28;20037;-73
2022/05/04 04:17:05;;;;;;;19.55;15.18;;;10.10;99.90;;;;;;4996385;28;20067;-72
2022/05/04 04:19:31;;;;;;;15.40;13.80;;;10.10;99.90;;;;;;4996371;28;20485;-73
2022/05/04 04:21:56;;;;;;;17.65;14.10;;;10.20;99.90;;;;;;4996263;28;20381;-73
2022/05/04 04:24:22;;;;;;;17.08;14.02;;;10.20;99.90;;;;;;4994210;28;20035;-73
2022/05/04 04:26:48;;;;;;;15.68;13.98;;;10.30;99.90;;;;;;4996063;28;20046;-72
2022/05/04 04:29:14;;;;;;;17.58;14.57;;;10.30;99.90;;;;;;4995976;28;20035;-72
2022/05/04 04:31:39;;;;;;;18.63;14.85;;;10.40;99.90;;;;;;4995332;28;20034;-73
2022/05/04 04:34:07;;;;;;;17.05;14.93;;;10.40;99.90;;;;;;4994177;28;20031;-73
2022/05/04 04:36:33;;;;;;;15.95;13.68;;;10.50;99.90;;;;;;4995769;28;20031;-72
2022/05/04 04:38:59;;;;;;;19.00;15.77;;;10.50;99.90;;;;;;4995773;28;20066;-73
2022/05/04 04:41:24;;;;;;;19.13;14.88;;;10.60;99.90;;;;;;4995486;28;20472;-74
2022/05/04 04:43:50;;;;;;;17.73;14.77;;;10.70;99.90;;;;;;4994017;28;20445;-75
2022/05/04 04:46:15;;;;;;;17.13;14.05;;;10.70;99.90;;;;;;4995571;28;20046;-75
2022/05/04 04:48:41;;;;;;;16.92;14.38;;;10.80;99.90;;;;;;4994324;28;20086;-74
2022/05/04 04:51:06;;;;;;;15.90;13.90;;;10.80;99.90;;;;;;4994948;28;20042;-75
2022/05/04 04:53:32;;;;;;;16.00;13.93;;;10.90;99.90;;;;;;4995035;28;20033;-75
2022/05/04 04:55:57;;;;;;;16.33;14.20;;;11.00;99.90;;;;;;4995809;28;20493;-75
2022/05/04 04:58:25;;;;;;;17.45;14.73;;;11.00;99.90;;;;;;4995519;28;20567;-75
2022/05/04 05:00:51;;;;;;;15.68;13.98;;;11.10;99.90;;;;;;4994989;28;20098;-75
2022/05/04 05:03:16;;;;;;;16.58;14.38;;;11.10;99.90;;;;;;4993851;28;20094;-75
2022/05/04 05:05:43;;;;;;;18.52;14.15;;;11.20;99.90;;;;;;4995463;28;20501;-74
2022/05/04 05:08:10;;;;;;;17.60;13.73;;;11.30;99.90;;;;;;4995387;28;20042;-75
2022/05/04 05:10:36;;;;;;;15.93;14.25;;;11.40;99.90;;;;;;4994098;28;20066;-75
2022/05/04 05:13:02;;;;;;;17.92;14.35;;;11.50;99.90;;;;;;4995580;28;20110;-74
2022/05/04 05:18:11;;;;;;;18.02;14.57;;;11.60;99.90;;;;;;4995509;28;20035;-74
2022/05/04 05:20:37;;;;;;;17.65;14.50;;;11.60;99.90;;;;;;4995318;28;20038;-73
2022/05/04 05:23:03;;;;;;;17.08;14.40;;;11.70;99.90;;;;;;4995239;28;20047;-75
2022/05/04 05:25:31;;;;;;;17.00;14.07;;;11.80;99.90;;;;;;4994026;28;20039;-74
2022/05/04 05:27:57;;;;;;;17.20;14.38;;;11.90;99.90;;;;;;4994445;28;20437;-74
2022/05/04 05:30:22;;;;;;;16.75;14.10;;;12.10;99.90;;;;;;4991016;28;20074;-75
2022/05/04 05:32:48;;;;;;;15.45;13.38;;;12.20;99.90;;;;;;4990536;28;20030;-72
2022/05/04 05:35:14;;;;;;;20.05;14.73;;;12.30;99.90;;;;;;5007687;28;20046;-75
2022/05/04 05:37:39;;;;;;;15.55;13.07;;;12.40;99.90;;;;;;4986578;28;20126;-73
2022/05/04 05:40:06;;;;;;;16.52;13.52;;;12.50;99.90;;;;;;4995076;28;20062;-73
2022/05/04 05:42:32;;;;;;;16.80;14.40;;;12.70;99.90;;;;;;4994300;28;20412;-73
2022/05/04 05:44:58;;;;;;;15.10;13.27;;;12.70;99.90;;;;;;4993363;28;20042;-71
2022/05/04 05:47:23;;;;;;;15.98;12.77;;;12.80;99.90;;;;;;4994974;28;20039;-72
2022/05/04 05:49:49;;;;;;;16.45;14.73;;;12.80;99.90;;;;;;4995043;28;20038;-73
2022/05/04 05:52:14;;;;;;;19.55;14.43;;;12.80;99.90;;;;;;4994760;28;20030;-72
2022/05/04 05:54:40;;;;;;;17.13;13.93;;;12.80;99.90;;;;;;4993061;28;20047;-72
2022/05/04 05:57:06;;;;;;;17.27;12.75;;;12.90;99.90;;;;;;4994295;28;20125;-73
2022/05/04 05:59:34;;;;;;;14.30;12.27;;;13.00;99.90;;;;;;4994568;28;20043;-72
2022/05/04 06:02:00;;;;;;;17.13;13.05;;;13.10;99.90;;;;;;4995750;28;20074;-73
2022/05/04 06:04:26;;;;;;;15.90;12.75;;;13.30;99.90;;;;;;4998086;28;20126;-72
2022/05/04 06:06:52;;;;;;;15.07;12.18;;;13.30;99.90;;;;;;4996527;28;20206;-73
2022/05/04 06:09:18;;;;;;;14.70;12.10;;;13.30;99.90;;;;;;4996520;28;20424;-71
2022/05/04 06:11:43;;;;;;;15.38;12.73;;;13.30;99.90;;;;;;4997983;28;20460;-73
2022/05/04 06:14:09;;;;;;;21.80;13.88;;;13.30;99.90;;;;;;4996282;28;20043;-72
2022/05/04 06:16:34;;;;;;;14.35;12.73;;;13.30;99.90;;;;;;4997942;28;20167;-73
2022/05/04 06:19:00;;;;;;;15.65;12.82;;;13.40;99.90;;;;;;4997902;28;20527;-72
2022/05/04 06:21:25;;;;;;;18.73;13.75;;;13.60;99.90;;;;;;4997439;28;20038;-73
2022/05/04 06:23:51;;;;;;;19.52;13.75;;;13.60;99.90;;;;;;4997578;28;20053;-72
2022/05/04 06:26:20;;;;;;;21.85;13.95;;;13.60;99.90;;;;;;4997284;28;20094;-72
2022/05/04 06:28:46;;;;;;;16.77;13.73;;;13.70;99.90;;;;;;4996224;28;20412;-72
2022/05/04 06:34:10;;;;;;;17.05;13.48;;;13.70;99.90;;;;;;4997662;28;20034;-72
2022/05/04 06:36:37;;;;;;;17.30;13.90;;;13.80;99.90;;;;;;4997835;28;20452;-72
2022/05/04 06:39:03;;;;;;;21.30;13.73;;;13.80;99.90;;;;;;4997491;28;20683;-73
2022/05/04 06:41:28;;;;;;;16.08;13.48;;;13.90;99.90;;;;;;4997145;28;20109;-72
2022/05/04 06:43:54;;;;;;;18.65;13.90;;;14.00;99.90;;;;;;4997627;28;20050;-73
2022/05/04 06:46:22;;;;;;;17.08;14.35;;;14.00;99.90;;;;;;4997227;28;20121;-74
2022/05/04 06:48:48;;;;;;;14.93;13.00;;;14.00;99.90;;;;;;4997722;28;20027;-71
2022/05/04 06:51:14;;;;;;;16.60;13.82;;;14.10;99.90;;;;;;4996944;28;20396;-74
2022/05/04 06:53:39;;;;;;;19.05;14.40;;;14.20;99.90;;;;;;4997481;28;20487;-73
2022/05/04 06:56:05;;;;;;;16.27;14.57;;;14.20;99.90;;;;;;4997897;28;20043;-76
2022/05/04 06:58:30;;;;;;;17.95;14.10;;;14.10;99.90;;;;;;4996335;28;20073;-75
2022/05/04 07:00:56;;;;;;;15.63;13.90;;;14.20;99.90;;;;;;4986723;28;20046;-75
2022/05/04 07:03:22;;;;;;;17.17;13.20;;;14.30;99.90;;;;;;4986138;28;20040;-74
2022/05/04 07:05:48;;;;;;;16.80;14.43;;;14.40;99.90;;;;;;4985195;28;20049;-75
2022/05/04 07:08:14;;;;;;;16.13;13.15;;;14.50;99.90;;;;;;4986863;28;20066;-74
2022/05/04 07:10:40;;;;;;;17.15;13.98;;;14.50;99.90;;;;;;4993512;28;20109;-73
2022/05/04 07:13:06;;;;;;;17.42;13.88;;;14.60;99.90;;;;;;4995102;28;20035;-73
2022/05/04 07:15:32;;;;;;;17.30;13.52;;;14.60;99.90;;;;;;4995771;28;20043;-78
2022/05/04 07:17:58;;;;;;;17.02;14.10;;;14.80;99.90;;;;;;4997275;28;20037;-74
2022/05/04 07:20:24;;;;;;;15.63;13.43;;;14.90;99.90;;;;;;4996781;28;20037;-77
2022/05/04 07:22:50;;;;;;;16.90;14.35;;;14.90;99.90;;;;;;4997066;28;20027;-76
2022/05/04 07:25:16;;;;;;;17.85;13.70;;;14.90;99.90;;;;;;4984647;28;20451;-75
2022/05/04 07:27:41;;;;;;;17.88;14.35;;;14.80;99.90;;;;;;4980328;28;20861;-75
2022/05/04 07:30:07;;;;;;;19.67;14.85;;;14.70;99.90;;;;;;4986763;28;20045;-75
2022/05/04 07:32:33;;;;;;;18.73;14.57;;;14.70;99.90;;;;;;4989711;28;20046;-73
2022/05/04 07:34:59;;;;;;;17.00;14.15;;;14.80;99.90;;;;;;4976612;28;20062;-74
2022/05/04 07:37:25;;;;;;;16.92;14.35;;;14.80;99.90;;;;;;4977877;28;20486;-74
2022/05/04 07:42:35;;;;;;;21.02;15.73;;;14.80;99.90;;;;;;4979875;28;20125;-76
2022/05/04 07:45:07;;;;;;;17.73;15.60;;;14.70;99.90;;;;;;4991801;28;20047;-74
2022/05/04 07:47:34;;;;;;;19.70;15.82;;;14.70;99.90;;;;;;4984044;28;20027;-73
2022/05/04 07:50:01;;;;;;;21.70;16.35;;;14.80;99.90;;;;;;4985380;28;20042;-74
2022/05/04 07:52:27;;;;;;;21.02;17.60;;;15.00;99.90;;;;;;4990651;28;20036;-73
2022/05/04 07:54:53;;;;;;;21.00;17.33;;;15.30;99.90;;;;;;4977930;28;20055;-77
2022/05/04 07:57:19;;;;;;;22.83;16.45;;;15.50;99.90;;;;;;4979075;28;20611;-79
2022/05/04 08:04:16;;;;;;;20.38;17.27;;;15.60;99.90;;;;;;4985718;28;20066;-81
2022/05/04 08:05:15;;;;;;;23.63;15.98;;;16.10;99.90;;;;;;4985897;28;20043;-77
2022/05/04 08:07:41;;;;;;;16.55;14.13;;;16.30;99.90;;;;;;4988229;28;20031;-76
2022/05/04 08:10:09;;;;;;;18.48;15.98;;;16.40;99.90;;;;;;4999952;28;20536;-77
2022/05/04 08:12:35;;;;;;;21.73;15.57;;;16.50;99.90;;;;;;4991233;28;20035;-78
2022/05/04 08:15:01;;;;;;;15.13;13.40;;;16.60;99.90;;;;;;5001014;28;20042;-78
2022/05/04 08:17:26;;;;;;;18.25;14.32;;;16.60;99.90;;;;;;4997229;28;20039;-78
2022/05/04 08:19:52;;;;;;;14.95;13.07;;;16.80;99.90;;;;;;4992474;28;20400;-78
2022/05/04 08:22:18;;;;;;;16.77;13.13;;;17.00;99.90;;;;;;4997524;28;20038;-77
2022/05/04 08:24:44;;;;;;;17.50;13.85;;;16.90;99.90;;;;;;4987971;28;20889;-77
2022/05/04 08:27:09;;;;;;;22.63;13.07;;;16.80;99.90;;;;;;4995321;28;20074;-77
2022/05/04 08:29:35;;;;;;;17.55;12.77;;;16.90;99.90;;;;;;4989647;28;20545;-77
2022/05/04 08:32:01;;;;;;;17.00;13.60;;;16.80;99.90;;;;;;4979185;28;20035;-77
2022/05/04 08:34:26;;;;;;;15.50;12.70;;;16.70;99.90;;;;;;4983993;28;21588;-77
2022/05/04 08:36:52;;;;;;;16.02;12.25;;;16.80;99.90;;;;;;4988374;28;20043;-77
2022/05/04 08:39:17;;;;;;;13.25;11.85;;;16.90;99.90;;;;;;4987358;28;20098;-77
2022/05/04 08:41:43;;;;;;;13.45;12.05;;;16.90;99.90;;;;;;4995636;28;20103;-77
2022/05/04 08:44:11;;;;;;;15.85;11.85;;;16.90;99.90;;;;;;4984068;28;20043;-76
2022/05/04 08:46:39;;;;;;;13.63;11.77;;;17.10;99.90;;;;;;4979468;28;20097;-76
2022/05/04 08:49:06;;;;;;;14.00;12.27;;;17.40;99.90;;;;;;4987244;28;20169;-77
2022/05/04 08:51:34;;;;;;;14.95;12.13;;;17.50;99.90;;;;;;4982641;28;20065;-75
2022/05/04 08:54:00;;;;;;;13.38;11.80;;;17.60;99.90;;;;;;4981376;28;20065;-76
2022/05/04 08:56:26;;;;;;;14.25;12.52;;;17.50;99.90;;;;;;4989683;28;20046;-76
2022/05/04 08:58:51;;;;;;;15.55;11.52;;;17.40;99.90;;;;;;4996924;28;20043;-77
2022/05/04 09:01:17;;;;;;;33.67;14.70;;;17.30;99.90;;;;;;4991004;28;20042;-77
2022/05/04 09:03:42;;;;;;;19.83;12.75;;;17.30;99.90;;;;;;4992308;28;20039;-77
2022/05/04 09:06:08;;;;;;;98.85;43.75;;;17.10;99.90;;;;;;4995457;28;20053;-78
2022/05/04 09:08:56;;;;;;;13.00;11.10;;;17.00;99.90;;;;;;4989846;28;20039;-77
2022/05/04 09:11:23;;;;;;;18.20;12.93;;;16.80;99.90;;;;;;4993022;28;20039;-75
2022/05/04 09:13:50;;;;;;;13.95;11.15;;;16.90;99.90;;;;;;4995750;28;20045;-76
2022/05/04 09:16:32;;;;;;;12.35;10.85;;;16.80;99.90;;;;;;4990094;28;20074;-75
2022/05/04 09:19:09;;;;;;;13.00;10.52;;;16.80;99.90;;;;;;4994643;28;20027;-76
2022/05/04 09:21:35;;;;;;;12.57;11.27;;;16.70;99.90;;;;;;4978643;28;20114;-76
2022/05/04 09:24:01;;;;;;;13.95;10.65;;;16.60;99.90;;;;;;4976441;28;20035;-76
2022/05/04 09:26:27;;;;;;;12.52;10.43;;;16.60;99.90;;;;;;4975093;28;20118;-76
2022/05/04 09:29:03;;;;;;;12.93;11.32;;;16.50;99.90;;;;;;4992203;28;20385;-76
2022/05/04 09:31:30;;;;;;;18.55;11.27;;;16.50;99.90;;;;;;4997291;28;20138;-76
2022/05/04 09:34:01;;;;;;;12.15;10.88;;;16.40;99.90;;;;;;4993857;28;20034;-76
2022/05/04 09:36:30;;;;;;;11.43;10.02;;;16.60;99.90;;;;;;4996010;28;20027;-77
2022/05/04 09:47:20;;;;;;;14.18;11.70;;;16.20;99.90;;;;;;4981858;28;20051;-77
2022/05/04 09:49:50;;;;;;;13.45;11.45;;;16.00;99.90;;;;;;4979310;28;20476;-76
2022/05/04 09:52:22;;;;;;;18.90;13.40;;;15.90;99.90;;;;;;4978783;28;20035;-76
2022/05/04 09:54:47;;;;;;;20.90;14.88;;;15.90;99.90;;;;;;4994190;28;20136;-76
2022/05/04 09:57:14;;;;;;;18.65;14.30;;;15.90;99.90;;;;;;4979109;28;20039;-76
2022/05/04 09:59:42;;;;;;;17.67;13.40;;;16.00;99.90;;;;;;4983303;28;20033;-76
2022/05/04 10:02:09;;;;;;;15.75;13.07;;;16.00;99.90;;;;;;4985032;28;20054;-76
2022/05/04 10:04:36;;;;;;;17.85;13.77;;;16.10;99.90;;;;;;4978459;28;20042;-76
2022/05/04 10:07:03;;;;;;;18.40;14.90;;;16.10;99.90;;;;;;4979391;28;20489;-76
2022/05/04 10:09:30;;;;;;;18.40;14.43;;;16.20;99.90;;;;;;4978466;28;20808;-76
2022/05/04 10:11:58;;;;;;;15.73;14.05;;;16.20;99.90;;;;;;4978097;28;20037;-76
2022/05/04 10:14:28;;;;;;;18.02;15.65;;;16.30;99.90;;;;;;4987923;28;20790;-77
2022/05/04 10:17:14;;;;;;;16.90;15.10;;;16.40;99.90;;;;;;4998935;28;20101;-76
2022/05/04 10:20:05;;;;;;;18.45;15.98;;;16.40;99.90;;;;;;4998058;28;20034;-76
2022/05/04 10:23:14;;;;;;;19.40;16.48;;;16.30;99.90;;;;;;4984808;28;20516;-78
2022/05/04 10:25:42;;;;;;;22.00;16.98;;;16.30;99.90;;;;;;4993292;28;20055;-78
2022/05/04 10:28:11;;;;;;;22.45;17.25;;;16.50;99.90;;;;;;4992886;28;20030;-78
2022/05/04 10:30:46;;;;;;;20.02;16.75;;;17.00;99.90;;;;;;5000775;28;20035;-76
2022/05/04 10:33:14;;;;;;;18.38;16.15;;;17.50;99.90;;;;;;4999292;28;20066;-78
2022/05/04 10:35:43;;;;;;;16.77;14.23;;;18.10;99.90;;;;;;4990062;28;20035;-78
2022/05/04 10:38:49;;;;;;;16.35;14.15;;;18.60;99.90;;;;;;4978486;28;20063;-77
2022/05/04 10:41:14;;;;;;;5.63;4.18;;;19.20;99.90;;;;;;4978394;28;20121;-73
2022/05/04 10:43:45;;;;;;;5.50;4.82;;;20.10;99.90;;;;;;4976275;28;20565;-72
2022/05/04 10:46:11;;;;;;;8.90;6.93;;;20.30;99.90;;;;;;4978518;28;20082;-75
2022/05/04 10:49:04;;;;;;;7.55;6.78;;;20.70;99.90;;;;;;4977491;28;20055;-73
2022/05/04 10:51:35;;;;;;;8.60;7.50;;;20.70;99.90;;;;;;4977941;28;20039;-73
2022/05/04 10:54:13;;;;;;;10.00;8.40;;;21.00;99.90;;;;;;4978434;28;20808;-76
2022/05/04 10:56:50;;;;;;;7.90;7.10;;;21.20;99.90;;;;;;4994199;28;20089;-76
2022/05/04 10:59:26;;;;;;;6.00;5.18;;;20.80;99.90;;;;;;4991815;28;20028;-75
2022/05/04 11:01:56;;;;;;;5.88;4.43;;;20.70;99.90;;;;;;4977966;28;20481;-74
2022/05/04 11:04:23;;;;;;;5.65;4.50;;;20.60;98.90;;;;;;4978263;28;20044;-76
2022/05/04 11:06:50;;;;;;;6.75;4.38;;;20.40;99.90;;;;;;4978503;28;20039;-77
2022/05/04 11:09:18;;;;;;;4.70;4.25;;;20.30;98.00;;;;;;4978570;28;20035;-75
2022/05/04 11:11:46;;;;;;;7.00;5.03;;;20.30;97.90;;;;;;4989428;28;20039;-76
2022/05/04 11:14:14;;;;;;;6.35;5.18;;;20.20;97.70;;;;;;4996404;28;20027;-74
2022/05/04 11:16:42;;;;;;;6.68;5.82;;;19.80;99.30;;;;;;4997039;28;20066;-76
2022/05/04 11:19:08;;;;;;;6.38;5.57;;;20.00;99.90;;;;;;4996529;28;20463;-76
2022/05/04 11:21:38;;;;;;;6.05;5.40;;;20.10;99.90;;;;;;4994715;28;20047;-75
2022/05/04 11:24:06;;;;;;;6.18;5.13;;;20.30;99.60;;;;;;4995678;28;20497;-76
2022/05/04 11:26:42;;;;;;;7.63;5.10;;;20.20;99.90;;;;;;4996895;28;20531;-76
2022/05/04 11:29:09;;;;;;;5.95;4.90;;;20.20;99.20;;;;;;4995259;28;20883;-74
2022/05/04 11:31:35;;;;;;;7.28;4.63;;;20.40;97.90;;;;;;4983527;28;20050;-74
2022/05/04 11:34:01;;;;;;;5.72;5.05;;;20.80;96.60;;;;;;4993636;28;20042;-75
2022/05/04 11:36:28;;;;;;;6.97;5.65;;;21.00;96.30;;;;;;4996975;28;20094;-74
2022/05/04 11:38:53;;;;;;;8.00;5.93;;;21.30;96.10;;;;;;4994588;28;20503;-75
2022/05/04 11:41:20;;;;;;;7.50;6.07;;;21.20;94.20;;;;;;4984994;28;20063;-74
2022/05/04 11:43:48;;;;;;;8.32;6.65;;;21.30;95.40;;;;;;4992355;28;20129;-75
2022/05/04 11:46:15;;;;;;;7.88;7.13;;;21.50;96.50;;;;;;4986896;28;20074;-75
2022/05/04 11:48:48;;;;;;;6.90;6.30;;;21.80;96.20;;;;;;4994425;28;20034;-75
2022/05/04 11:51:18;;;;;;;6.47;5.88;;;21.90;94.70;;;;;;4994824;28;20035;-76
2022/05/04 11:53:47;;;;;;;6.65;5.30;;;21.60;94.00;;;;;;4996262;28;20118;-76
2022/05/04 11:56:13;;;;;;;7.18;6.18;;;21.30;93.20;;;;;;4980053;28;20039;-78
2022/05/04 11:58:38;;;;;;;6.40;5.75;;;21.30;94.90;;;;;;4976407;28;20031;-75
2022/05/04 12:01:07;;;;;;;6.82;6.13;;;21.60;95.10;;;;;;4987141;28;20046;-75
2022/05/04 12:03:35;;;;;;;4.90;4.50;;;21.90;94.40;;;;;;4995794;28;20043;-76
2022/05/04 12:06:04;;;;;;;5.93;5.40;;;22.30;92.80;;;;;;4997089;28;20500;-76
2022/05/04 12:08:31;;;;;;;8.25;5.32;;;23.10;90.50;;;;;;4996249;28;20035;-76
2022/05/04 12:10:58;;;;;;;5.78;5.28;;;22.90;91.60;;;;;;4986926;28;20126;-76
2022/05/04 12:13:26;;;;;;;6.78;6.07;;;22.60;90.80;;;;;;4976166;28;20039;-75
2022/05/04 12:15:58;;;;;;;5.13;4.18;;;22.30;90.90;;;;;;4977638;28;20489;-77
2022/05/04 12:18:29;;;;;;;5.60;5.00;;;22.50;86.50;;;;;;4984541;28;20097;-75
2022/05/04 12:20:55;;;;;;;5.75;4.63;;;22.30;89.60;;;;;;4982257;28;20043;-77
2022/05/04 12:23:21;;;;;;;4.20;3.80;;;22.50;93.30;;;;;;4994506;28;20425;-76
2022/05/04 12:25:48;;;;;;;6.25;4.28;;;22.60;86.20;;;;;;4996305;28;20047;-78
2022/05/04 12:28:13;;;;;;;5.35;4.53;;;22.90;87.80;;;;;;4987563;28;20032;-76
2022/05/04 12:33:30;;;;;;;6.25;4.53;;;23.20;86.30;;;;;;4993497;28;20492;-76
2022/05/04 12:36:05;;;;;;;5.47;4.60;;;23.60;83.70;;;;;;4991117;28;20481;-76
2022/05/04 12:38:33;;;;;;;5.13;4.32;;;23.60;83.90;;;;;;4976073;28;20042;-76
2022/05/04 12:41:00;;;;;;;3.20;2.60;;;23.20;86.20;;;;;;4989412;28;20070;-77
2022/05/04 12:43:30;;;;;;;5.70;3.45;;;23.60;81.90;;;;;;4995458;28;20035;-77
2022/05/04 12:45:56;;;;;;;6.07;3.58;;;23.40;82.10;;;;;;4980698;28;20043;-77
2022/05/04 12:48:25;;;;;;;6.20;3.92;;;23.50;89.60;;;;;;4976305;28;20588;-75
2022/05/04 12:50:53;;;;;;;5.00;3.95;;;23.50;80.50;;;;;;4975576;28;20066;-77
2022/05/04 12:53:19;;;;;;;4.13;3.33;;;23.80;82.40;;;;;;4976779;28;20035;-77
2022/05/04 12:58:45;;;;;;;4.63;3.65;;;24.30;80.80;;;;;;4950543;28;20081;-79
2022/05/04 13:01:12;;;;;;;7.90;3.92;;;24.20;80.30;;;;;;4967304;28;20521;-76
2022/05/04 13:03:37;;;;;;;4.95;3.17;;;23.60;78.90;;;;;;4986073;28;20141;-76
2022/05/04 13:06:03;;;;;;;4.03;3.15;;;23.70;81.60;;;;;;4995279;28;20137;-77
2022/05/04 13:08:29;;;;;;;3.40;3.10;;;23.90;76.40;;;;;;4994400;28;20447;-76
2022/05/04 13:10:55;;;;;;;6.07;3.45;;;23.80;75.70;;;;;;4974258;28;20039;-75
2022/05/04 13:13:21;;;;;;;6.60;3.70;;;23.80;76.80;;;;;;4976514;28;20039;-76
2022/05/04 13:15:48;;;;;;;8.45;3.85;;;23.80;76.60;;;;;;4990702;28;20054;-75
2022/05/04 13:18:14;;;;;;;4.35;3.70;;;23.40;75.20;;;;;;4977383;28;20035;-74
2022/05/04 13:20:40;;;;;;;6.20;3.50;;;23.50;83.10;;;;;;4975955;28;20482;-76
2022/05/04 13:23:07;;;;;;;5.20;3.63;;;24.00;74.30;;;;;;4987970;28;20039;-75
2022/05/04 13:25:33;;;;;;;3.97;3.20;;;24.40;76.00;;;;;;4975771;28;20046;-77
2022/05/04 13:27:59;;;;;;;5.07;3.35;;;24.80;72.20;;;;;;4975699;28;20042;-75
2022/05/04 13:30:26;;;;;;;5.70;3.20;;;25.00;77.20;;;;;;4973631;28;20309;-76
2022/05/04 13:32:51;;;;;;;3.30;3.00;;;25.30;70.30;;;;;;4975601;28;20063;-75
2022/05/04 13:35:17;;;;;;;4.03;2.92;;;25.90;70.10;;;;;;4975485;28;20035;-76
2022/05/04 13:37:46;;;;;;;6.18;3.13;;;26.70;67.40;;;;;;4975552;28;20035;-75
2022/05/04 13:40:13;;;;;;;3.42;2.72;;;27.40;67.80;;;;;;4975654;28;20461;-76
2022/05/04 13:42:40;;;;;;;2.83;2.63;;;28.10;57.70;;;;;;4973571;28;20031;-77
2022/05/04 13:45:07;;;;;;;4.22;3.00;;;28.00;58.70;;;;;;4980934;28;20039;-77
2022/05/04 13:47:33;;;;;;;4.88;2.80;;;28.40;58.60;;;;;;4995190;28;20520;-77
2022/05/04 13:49:58;;;;;;;4.78;2.70;;;29.30;58.40;;;;;;4994120;28;20039;-81
2022/05/04 13:55:08;;;;;;;5.55;3.40;;;29.60;54.50;;;;;;4995375;28;20023;-76
2022/05/04 13:57:34;;;;;;;3.95;3.40;;;28.90;54.50;;;;;;4993529;28;20035;-76
2022/05/04 13:59:59;;;;;;;3.70;3.28;;;29.50;55.50;;;;;;4983262;28;20040;-76
2022/05/04 14:02:25;;;;;;;4.20;2.83;;;30.00;55.40;;;;;;4982054;28;20043;-75
2022/05/04 14:04:50;;;;;;;6.40;5.75;;;30.90;52.00;;;;;;4992789;28;20451;-76
2022/05/04 14:07:16;;;;;;;8.50;7.07;;;29.50;60.40;;;;;;4988508;28;20043;-77
2022/05/04 14:09:42;;;;;;;8.93;7.35;;;27.20;70.10;;;;;;4974487;28;20039;-78
2022/05/04 14:12:08;;;;;;;10.40;7.72;;;25.70;72.90;;;;;;4991507;28;20488;-78
2022/05/04 14:17:18;;;;;;;8.13;7.32;;;26.80;70.60;;;;;;4987566;28;20035;-80
2022/05/04 14:19:43;;;;;;;10.13;7.85;;;26.80;69.80;;;;;;4975830;28;20031;-79
2022/05/04 14:22:09;;;;;;;7.43;6.72;;;26.60;71.30;;;;;;4981499;28;20400;-77
2022/05/04 14:24:35;;;;;;;7.63;6.70;;;26.30;71.20;;;;;;4982210;28;20035;-78
2022/05/04 14:27:00;;;;;;;7.40;6.10;;;25.30;74.70;;;;;;4982154;28;20500;-77
2022/05/04 14:29:40;;;;;;;10.48;6.70;;;24.50;73.90;;;;;;4982580;28;20055;-78
2022/05/04 14:32:06;;;;;;;10.23;7.72;;;23.60;76.90;;;;;;4979223;28;20548;-78
2022/05/04 14:34:32;;;;;;;9.93;8.60;;;22.80;82.20;;;;;;4978941;28;20094;-82
2022/05/04 14:36:58;;;;;;;9.73;8.43;;;21.80;86.40;;;;;;4978099;28;20071;-75
2022/05/04 14:39:23;;;;;;;8.63;7.45;;;21.10;88.90;;;;;;4978292;28;20474;-75
2022/05/04 14:41:49;;;;;;;8.20;7.40;;;20.70;89.40;;;;;;4991666;28;20038;-75
2022/05/04 14:44:15;;;;;;;7.90;7.10;;;20.20;90.90;;;;;;4999341;28;20035;-76
2022/05/04 14:46:40;;;;;;;7.80;7.00;;;20.10;90.80;;;;;;4991907;28;20792;-77
2022/05/04 14:49:06;;;;;;;8.13;7.25;;;20.10;90.40;;;;;;4977294;28;20035;-76
2022/05/04 14:51:32;;;;;;;8.48;7.50;;;19.90;91.20;;;;;;4978164;28;20481;-75
2022/05/04 14:53:58;;;;;;;9.90;8.52;;;19.80;91.40;;;;;;4978332;28;20539;-75
2022/05/04 14:56:23;;;;;;;10.27;8.43;;;19.60;93.50;;;;;;4991792;28;20130;-75
2022/05/04 14:58:49;;;;;;;12.70;8.82;;;19.10;94.50;;;;;;4998124;28;20058;-75
2022/05/04 15:01:14;;;;;;;9.43;7.18;;;18.80;95.50;;;;;;4997710;28;20082;-74
2022/05/04 15:06:30;;;;;;;10.18;6.57;;;18.40;94.30;;;;;;4997691;28;20039;-75
2022/05/04 15:08:56;;;;;;;9.88;6.70;;;18.20;95.30;;;;;;4995149;28;20027;-74
2022/05/04 15:11:22;;;;;;;7.30;6.60;;;17.90;96.40;;;;;;4986431;28;20500;-75
2022/05/04 15:13:48;;;;;;;8.65;6.95;;;17.70;96.50;;;;;;4996998;28;20035;-75
2022/05/04 15:16:13;;;;;;;9.38;7.80;;;17.70;97.40;;;;;;4997198;28;20034;-76
2022/05/04 15:18:39;;;;;;;8.15;7.18;;;17.60;98.70;;;;;;4997006;28;20392;-76
2022/05/04 15:21:05;;;;;;;8.48;7.10;;;17.40;99.10;;;;;;4990424;28;20075;-76
2022/05/04 15:23:30;;;;;;;11.02;7.97;;;17.40;99.60;;;;;;4977923;28;20035;-78
2022/05/04 15:25:56;;;;;;;6.97;6.03;;;17.40;99.90;;;;;;4977791;28;20118;-78
2022/05/04 15:28:22;;;;;;;9.65;6.50;;;17.30;99.90;;;;;;4977536;28;20051;-75
2022/05/04 15:30:47;;;;;;;7.38;6.65;;;17.00;99.90;;;;;;4981062;28;20039;-75
2022/05/04 15:33:13;;;;;;;8.20;6.85;;;16.50;99.90;;;;;;4996401;28;20031;-75
2022/05/04 15:35:38;;;;;;;7.55;5.53;;;16.10;99.90;;;;;;4997081;28;20035;-76
2022/05/04 15:38:04;;;;;;;6.05;5.45;;;15.70;99.90;;;;;;4987491;28;20393;-77
2022/05/04 15:40:30;;;;;;;6.15;5.25;;;15.50;99.90;;;;;;4978156;28;20035;-78
2022/05/04 15:42:56;;;;;;;6.05;4.60;;;15.40;99.90;;;;;;4979582;28;20035;-79
2022/05/04 15:45:22;;;;;;;6.35;5.28;;;15.60;99.90;;;;;;4981122;28;20529;-80
2022/05/04 15:47:49;;;;;;;6.30;5.68;;;15.80;99.90;;;;;;4982294;28;20028;-79
2022/05/04 15:50:15;;;;;;;8.35;6.22;;;16.00;99.90;;;;;;4982963;28;20066;-78
2022/05/04 15:52:41;;;;;;;6.63;6.03;;;16.20;99.90;;;;;;4977701;28;20019;-78
2022/05/04 15:55:08;;;;;;;5.57;4.85;;;18.10;99.90;;;;;;4977817;28;20031;-77
2022/05/04 15:57:37;;;;;;;10.48;5.55;;;20.90;99.90;;;;;;4980020;28;20034;-81
2022/05/04 16:00:06;;;;;;;4.35;3.90;;;23.40;99.90;;;;;;4978233;28;20094;-79
2022/05/04 16:05:16;;;;;;;4.57;3.47;;;25.40;99.90;;;;;;4979082;28;20043;-78
2022/05/04 16:07:43;;;;;;;4.70;3.30;;;26.30;94.10;;;;;;4997507;28;20038;-83
2022/05/04 16:10:09;;;;;;;4.97;3.17;;;26.20;95.80;;;;;;4995797;28;20130;-80
2022/05/04 16:12:34;;;;;;;3.17;2.88;;;26.70;91.10;;;;;;4977427;28;20035;-78
2022/05/04 16:15:00;;;;;;;2.90;2.38;;;26.40;90.30;;;;;;4977360;28;20035;-79
2022/05/04 16:22:55;;;;;;;2.22;2.03;;;22.30;92.80;;;;;;4980098;28;20032;-79
2022/05/04 16:25:20;;;;;;;2.67;2.47;;;23.90;80.30;;;;;;4976850;28;20039;-77
2022/05/04 16:27:46;;;;;;;2.60;2.20;;;24.70;83.60;;;;;;4976739;28;20039;-79
2022/05/04 16:30:12;;;;;;;2.50;2.30;;;25.50;84.20;;;;;;4976373;28;20581;-77
2022/05/04 16:32:38;;;;;;;2.97;2.67;;;25.20;83.30;;;;;;4978707;28;20500;-77
2022/05/04 16:35:04;;;;;;;3.22;2.92;;;25.70;89.20;;;;;;4991526;28;20061;-77
2022/05/04 16:37:30;;;;;;;4.90;2.80;;;25.20;83.00;;;;;;4976120;28;20031;-79
2022/05/04 16:39:55;;;;;;;3.50;2.90;;;24.80;90.70;;;;;;4975595;28;20545;-77
2022/05/04 16:42:21;;;;;;;3.40;2.63;;;24.20;81.00;;;;;;4977113;28;20039;-79
2022/05/04 16:44:47;;;;;;;4.35;3.00;;;24.00;90.80;;;;;;4977568;28;20039;-78
2022/05/04 16:47:13;;;;;;;4.28;2.70;;;23.70;90.70;;;;;;4978336;28;20453;-78
2022/05/04 16:49:38;;;;;;;5.75;3.05;;;23.10;92.70;;;;;;4989705;28;20420;-78
2022/05/04 16:52:04;;;;;;;3.08;2.78;;;22.70;92.90;;;;;;4981396;28;20039;-78
2022/05/04 16:54:29;;;;;;;3.63;3.15;;;22.20;90.10;;;;;;4978367;28;20031;-78
2022/05/04 16:56:55;;;;;;;3.55;3.10;;;21.80;93.30;;;;;;4978424;28;20086;-77
2022/05/04 16:59:21;;;;;;;4.20;3.00;;;21.40;90.80;;;;;;4978977;28;20042;-78
2022/05/04 17:01:47;;;;;;;3.35;3.03;;;21.20;90.50;;;;;;4977970;28;20134;-77
2022/05/04 17:04:14;;;;;;;4.70;3.03;;;21.20;91.30;;;;;;4978816;28;20024;-80
2022/05/04 17:06:40;;;;;;;5.70;3.30;;;20.80;91.40;;;;;;4976750;28;20102;-78
2022/05/04 17:09:05;;;;;;;3.55;3.20;;;20.70;97.90;;;;;;4975157;28;20520;-78
2022/05/04 17:11:31;;;;;;;3.83;3.10;;;20.70;93.00;;;;;;4975808;28;20035;-76
2022/05/04 17:13:57;;;;;;;4.97;3.22;;;20.60;96.60;;;;;;4975817;28;20169;-77
2022/05/04 17:16:23;;;;;;;3.90;3.50;;;20.50;94.70;;;;;;4976646;28;20110;-77
2022/05/04 17:18:54;;;;;;;3.40;2.85;;;20.40;93.30;;;;;;4974498;28;20041;-76